createdAt,value
2018-04-27T00:00:22.371Z,0.93
2018-04-27T00:02:49.867Z,0.83
2018-04-27T00:05:18.150Z,0.80
2018-04-27T00:07:46.411Z,1.10
2018-04-27T00:10:14.786Z,0.70
2018-04-27T00:12:42.252Z,0.60
2018-04-27T00:15:09.766Z,0.83
2018-04-27T00:17:37.265Z,0.67
2018-04-27T00:20:04.747Z,0.93
2018-04-27T00:22:32.204Z,0.77
2018-04-27T00:24:59.699Z,0.83
2018-04-27T00:27:27.172Z,0.90
2018-04-27T00:29:54.709Z,0.50
2018-04-27T00:32:22.933Z,0.43
2018-04-27T00:34:50.416Z,0.60
2018-04-27T00:37:17.908Z,0.60
2018-04-27T00:39:45.410Z,0.87
2018-04-27T00:42:13.723Z,0.60
2018-04-27T00:44:41.260Z,0.57
2018-04-27T00:47:08.768Z,0.70
2018-04-27T00:49:36.241Z,0.50
2018-04-27T00:52:03.745Z,0.53
2018-04-27T00:54:31.222Z,0.70
2018-04-27T00:56:58.711Z,0.87
2018-04-27T00:59:26.182Z,0.70
2018-04-27T01:01:53.671Z,0.80
2018-04-27T01:04:21.909Z,0.50
2018-04-27T01:06:49.409Z,0.80
2018-04-27T01:09:16.902Z,0.70
2018-04-27T01:11:45.150Z,0.50
2018-04-27T01:14:12.635Z,0.60
2018-04-27T01:16:40.232Z,0.70
2018-04-27T01:19:08.465Z,0.50
2018-04-27T01:21:35.974Z,0.50
2018-04-27T01:24:03.459Z,0.60
2018-04-27T01:26:31.719Z,0.80
2018-04-27T01:28:59.184Z,0.60
2018-04-27T01:31:26.684Z,0.50
2018-04-27T01:33:54.955Z,0.77
2018-04-27T01:36:22.451Z,0.70
2018-04-27T01:38:50.699Z,0.80
2018-04-27T01:41:18.220Z,0.97
2018-04-27T01:43:46.458Z,0.60
2018-04-27T01:46:13.968Z,0.83
2018-04-27T01:48:42.199Z,0.50
2018-04-27T01:51:09.676Z,0.73
2018-04-27T01:53:37.163Z,0.53
2018-04-27T01:56:04.720Z,0.60
2018-04-27T01:58:32.236Z,0.57
2018-04-27T02:00:59.758Z,0.63
2018-04-27T02:03:27.254Z,0.50
2018-04-27T02:05:54.716Z,0.83
2018-04-27T02:08:22.202Z,0.90
2018-04-27T02:10:49.668Z,0.70
2018-04-27T02:13:17.169Z,0.70
2018-04-27T02:15:45.457Z,0.70
2018-04-27T02:18:13.769Z,0.73
2018-04-27T02:20:41.240Z,0.60
2018-04-27T02:23:08.759Z,0.90
2018-04-27T02:25:36.223Z,0.60
2018-04-27T02:28:03.760Z,0.60
2018-04-27T02:30:31.275Z,0.90
2018-04-27T02:32:58.731Z,1.03
2018-04-27T02:35:26.968Z,0.80
2018-04-27T02:37:55.191Z,0.60
2018-04-27T02:40:22.689Z,0.80
2018-04-27T02:42:50.150Z,0.70
2018-04-27T02:45:17.687Z,0.97
2018-04-27T02:47:45.161Z,1.00
2018-04-27T02:50:12.695Z,1.13
2018-04-27T02:52:40.180Z,0.70
2018-04-27T02:55:08.432Z,0.80
2018-04-27T02:57:36.724Z,0.90
2018-04-27T03:00:04.245Z,0.93
2018-04-27T03:02:32.496Z,0.70
2018-04-27T03:04:59.985Z,0.97
2018-04-27T03:07:28.246Z,0.80
2018-04-27T03:09:55.765Z,0.93
2018-04-27T03:12:23.226Z,1.03
2018-04-27T03:14:51.489Z,1.00
2018-04-27T03:17:18.976Z,0.60
2018-04-27T03:19:47.227Z,0.77
2018-04-27T03:22:14.760Z,0.80
2018-04-27T03:24:42.240Z,0.90
2018-04-27T03:27:09.722Z,0.70
2018-04-27T03:29:37.224Z,0.83
2018-04-27T03:32:04.703Z,0.87
2018-04-27T03:34:32.162Z,0.77
2018-04-27T03:36:59.675Z,0.80
2018-04-27T03:39:27.918Z,1.00
2018-04-27T03:41:55.420Z,0.93
2018-04-27T03:44:22.953Z,1.10
2018-04-27T03:46:50.456Z,0.87
2018-04-27T03:49:17.996Z,0.90
2018-04-27T03:51:45.560Z,0.90
2018-04-27T03:54:13.033Z,0.63
2018-04-27T03:56:40.607Z,0.70
2018-04-27T03:59:08.082Z,1.00
2018-04-27T04:04:48.711Z,0.57
2018-04-27T04:07:18.334Z,0.67
2018-04-27T04:09:45.840Z,0.50
2018-04-27T04:12:13.291Z,0.70
2018-04-27T04:14:40.782Z,0.80
2018-04-27T04:17:09.060Z,0.60
2018-04-27T04:19:37.291Z,0.83
2018-04-27T04:22:04.784Z,0.93
2018-04-27T04:24:32.255Z,0.97
2018-04-27T04:26:59.738Z,0.87
2018-04-27T04:29:27.211Z,0.50
2018-04-27T04:31:55.432Z,0.70
2018-04-27T04:36:57.576Z,0.53
2018-04-27T04:39:25.085Z,0.50
2018-04-27T04:41:52.579Z,0.97
2018-04-27T04:44:20.840Z,0.83
2018-04-27T04:46:48.327Z,0.53
2018-04-27T04:49:15.825Z,0.60
2018-04-27T04:51:43.301Z,0.60
2018-04-27T04:54:10.783Z,0.67
2018-04-27T04:56:38.346Z,0.70
2018-04-27T04:59:05.856Z,0.50
2018-04-27T05:01:33.324Z,0.77
2018-04-27T05:04:00.842Z,0.87
2018-04-27T05:06:29.085Z,1.17
2018-04-27T05:08:56.543Z,0.50
2018-04-27T05:11:24.095Z,0.80
2018-04-27T05:13:51.869Z,0.87
2018-04-27T05:16:19.366Z,0.73
2018-04-27T05:18:49.609Z,0.50
2018-04-27T05:21:17.144Z,0.80
2018-04-27T05:23:45.401Z,0.50
2018-04-27T05:26:13.671Z,0.77
2018-04-27T05:28:41.931Z,0.80
2018-04-27T05:31:21.367Z,0.63
2018-04-27T05:33:48.852Z,0.60
2018-04-27T05:36:16.343Z,0.80
2018-04-27T05:38:43.821Z,0.70
2018-04-27T05:41:12.063Z,0.70
2018-04-27T05:43:39.555Z,1.10
2018-04-27T05:46:07.062Z,0.90
2018-04-27T05:48:34.551Z,0.83
2018-04-27T05:51:02.081Z,1.33
2018-04-27T05:53:29.538Z,0.70
2018-04-27T05:55:57.046Z,0.50
2018-04-27T05:58:24.564Z,0.80
2018-04-27T06:00:52.171Z,0.87
2018-04-27T06:03:19.669Z,0.70
2018-04-27T06:05:47.143Z,0.97
2018-04-27T06:08:15.439Z,1.00
2018-04-27T06:10:44.492Z,0.77
2018-04-27T06:13:11.996Z,0.50
2018-04-27T06:15:39.458Z,0.57
2018-04-27T06:18:07.740Z,0.90
2018-04-27T06:20:35.211Z,0.70
2018-04-27T06:23:02.737Z,0.50
2018-04-27T06:25:30.202Z,0.80
2018-04-27T06:27:58.466Z,0.80
2018-04-27T06:30:25.938Z,0.80
2018-04-27T06:32:53.689Z,0.70
2018-04-27T06:35:21.212Z,1.10
2018-04-27T06:37:49.487Z,0.60
2018-04-27T06:40:16.970Z,0.73
2018-04-27T06:42:45.258Z,0.90
2018-04-27T06:45:13.502Z,0.60
2018-04-27T06:47:41.061Z,0.83
2018-04-27T06:50:08.603Z,0.90
2018-04-27T06:52:36.896Z,0.60
2018-04-27T06:55:04.380Z,0.80
2018-04-27T06:57:31.877Z,0.90
2018-04-27T06:59:59.419Z,0.87
2018-04-27T07:02:26.951Z,0.70
2018-04-27T07:04:54.561Z,0.60
2018-04-27T07:07:22.024Z,0.67
2018-04-27T07:09:50.296Z,0.80
2018-04-27T07:12:18.570Z,0.70
2018-04-27T07:14:46.055Z,0.77
2018-04-27T07:17:13.519Z,0.70
2018-04-27T07:19:41.056Z,0.70
2018-04-27T07:22:08.542Z,0.67
2018-04-27T07:24:36.025Z,0.47
2018-04-27T07:27:03.489Z,0.70
2018-04-27T07:29:31.007Z,0.90
2018-04-27T07:31:58.521Z,0.70
2018-04-27T07:34:26.017Z,1.10
2018-04-27T07:36:53.504Z,0.60
2018-04-27T07:39:21.765Z,0.63
2018-04-27T07:41:49.259Z,0.70
2018-04-27T07:44:17.510Z,0.70
2018-04-27T07:46:45.009Z,0.50
2018-04-27T07:49:12.491Z,0.57
2018-04-27T07:51:40.735Z,0.80
2018-04-27T07:54:08.208Z,0.60
2018-04-27T07:56:36.484Z,0.80
2018-04-27T07:59:03.968Z,0.77
2018-04-27T08:01:31.444Z,0.63
2018-04-27T08:03:58.909Z,0.70
2018-04-27T08:06:26.402Z,0.47
2018-04-27T08:08:53.912Z,0.70
2018-04-27T08:11:21.394Z,0.60
2018-04-27T08:13:48.869Z,0.70
2018-04-27T08:16:16.432Z,0.70
2018-04-27T08:18:43.987Z,0.70
2018-04-27T08:21:11.472Z,0.97
2018-04-27T08:23:38.935Z,0.80
2018-04-27T08:26:07.202Z,0.80
2018-04-27T08:28:36.154Z,0.60
2018-04-27T08:31:03.636Z,0.80
2018-04-27T08:33:31.124Z,0.93
2018-04-27T08:35:59.422Z,0.67
2018-04-27T08:38:26.917Z,0.73
2018-04-27T08:40:54.418Z,0.80
2018-04-27T08:43:21.899Z,0.80
2018-04-27T08:45:49.457Z,0.70
2018-04-27T08:48:16.981Z,1.10
2018-04-27T08:50:44.448Z,0.73
2018-04-27T08:53:11.932Z,0.63
2018-04-27T08:55:39.387Z,0.60
2018-04-27T08:58:06.888Z,1.63
2018-04-27T09:00:34.383Z,1.03
2018-04-27T09:03:01.897Z,0.83
2018-04-27T09:05:29.355Z,0.77
2018-04-27T09:07:56.852Z,0.60
2018-04-27T09:10:24.372Z,0.60
2018-04-27T09:12:52.009Z,0.60
2018-04-27T09:15:19.536Z,0.67
2018-04-27T09:17:47.305Z,0.70
2018-04-27T09:20:14.811Z,0.80
2018-04-27T09:22:42.290Z,0.60
2018-04-27T09:25:09.752Z,0.50
2018-04-27T09:27:37.241Z,0.70
2018-04-27T09:30:04.711Z,0.80
2018-04-27T09:32:32.216Z,0.67
2018-04-27T09:35:00.441Z,1.00
2018-04-27T09:37:27.923Z,0.80
2018-04-27T09:39:55.400Z,0.67
2018-04-27T09:42:22.890Z,0.70
2018-04-27T09:44:50.936Z,0.70
2018-04-27T09:47:18.425Z,0.85
2018-04-27T09:49:45.949Z,0.60
2018-04-27T09:52:13.420Z,0.50
2018-04-27T09:54:40.918Z,0.60
2018-04-27T09:57:08.389Z,0.50
2018-04-27T09:59:35.905Z,0.55
2018-04-27T10:02:03.401Z,0.80
2018-04-27T10:04:30.897Z,0.60
2018-04-27T10:06:58.544Z,0.68
2018-04-27T10:09:26.058Z,0.62
2018-04-27T10:11:53.535Z,0.80
2018-04-27T10:14:21.025Z,0.77
2018-04-27T10:16:50.025Z,0.45
2018-04-27T10:19:17.527Z,0.45
2018-04-27T10:21:45.763Z,0.40
2018-04-27T10:24:13.244Z,0.55
2018-04-27T10:26:41.526Z,0.50
2018-04-27T10:29:09.079Z,0.43
2018-04-27T10:31:36.572Z,0.50
2018-04-27T10:34:04.061Z,0.65
2018-04-27T10:36:31.555Z,0.45
2018-04-27T10:38:59.792Z,0.40
2018-04-27T10:41:27.308Z,0.22
2018-04-27T10:43:56.288Z,0.50
2018-04-27T10:46:23.795Z,0.55
2018-04-27T10:48:51.301Z,0.37
2018-04-27T10:51:18.796Z,0.55
2018-04-27T10:53:46.342Z,0.40
2018-04-27T10:56:13.833Z,0.40
2018-04-27T10:58:41.320Z,0.40
2018-04-27T11:01:08.832Z,0.22
2018-04-27T11:03:36.313Z,0.40
2018-04-27T11:06:03.811Z,0.50
2018-04-27T11:08:31.310Z,0.65
2018-04-27T11:10:58.872Z,0.45
2018-04-27T11:13:27.804Z,0.40
2018-04-27T11:15:55.336Z,0.50
2018-04-27T11:18:22.799Z,0.37
2018-04-27T11:20:50.289Z,0.50
2018-04-27T11:23:17.775Z,0.47
2018-04-27T11:25:45.244Z,0.50
2018-04-27T11:28:12.734Z,0.50
2018-04-27T11:30:40.191Z,0.68
2018-04-27T11:33:08.457Z,0.60
2018-04-27T11:35:35.968Z,0.40
2018-04-27T11:38:04.228Z,0.50
2018-04-27T11:40:32.543Z,0.30
2018-04-27T11:43:00.045Z,0.37
2018-04-27T11:45:27.553Z,0.43
2018-04-27T11:47:55.061Z,0.57
2018-04-27T11:50:22.569Z,0.50
2018-04-27T11:52:50.079Z,0.50
2018-04-27T11:55:17.544Z,0.50
2018-04-27T11:57:45.020Z,0.30
2018-04-27T12:00:12.480Z,0.30
2018-04-27T12:02:39.973Z,0.28
2018-04-27T12:05:07.448Z,0.60
2018-04-27T12:07:35.339Z,0.30
2018-04-27T12:10:03.641Z,0.30
2018-04-27T12:12:31.124Z,0.30
2018-04-27T12:14:58.628Z,0.70
2018-04-27T12:17:26.119Z,0.30
2018-04-27T12:19:53.731Z,0.30
2018-04-27T12:22:21.213Z,0.20
2018-04-27T12:24:48.748Z,0.43
2018-04-27T12:27:16.989Z,0.40
2018-04-27T12:29:44.485Z,0.60
2018-04-27T12:32:11.955Z,0.65
2018-04-27T12:34:40.214Z,0.40
2018-04-27T12:37:07.691Z,0.30
2018-04-27T12:39:35.185Z,0.17
2018-04-27T12:42:03.427Z,0.43
2018-04-27T12:44:30.931Z,0.20
2018-04-27T12:46:58.397Z,0.43
2018-04-27T12:49:25.909Z,0.45
2018-04-27T12:51:53.399Z,0.45
2018-04-27T12:54:21.743Z,0.20
2018-04-27T12:56:49.267Z,0.30
2018-04-27T12:59:17.523Z,0.40
2018-04-27T13:01:45.020Z,0.30
2018-04-27T13:04:13.287Z,0.40
2018-04-27T13:06:40.778Z,0.28
2018-04-27T13:09:09.040Z,0.35
2018-04-27T13:11:36.560Z,0.43
2018-04-27T13:14:04.104Z,0.35
2018-04-27T13:16:32.375Z,0.40
2018-04-27T13:18:59.952Z,0.50
2018-04-27T13:21:27.421Z,0.28
2018-04-27T13:23:54.948Z,0.32
2018-04-27T13:26:22.540Z,0.28
2018-04-27T13:28:50.818Z,0.30
2018-04-27T13:31:18.325Z,0.30
2018-04-27T13:33:45.827Z,0.50
2018-04-27T13:36:13.311Z,0.50
2018-04-27T13:38:40.831Z,0.30
2018-04-27T13:41:08.314Z,0.20
2018-04-27T13:43:35.806Z,0.40
2018-04-27T13:46:04.052Z,0.77
2018-04-27T13:48:31.560Z,0.70
2018-04-27T13:50:59.815Z,0.50
2018-04-27T13:53:27.298Z,0.43
2018-04-27T13:55:54.797Z,0.47
2018-04-27T13:58:22.301Z,0.25
2018-04-27T14:00:49.779Z,0.40
2018-04-27T14:03:17.286Z,0.30
2018-04-27T14:05:44.767Z,0.20
2018-04-27T14:08:13.020Z,0.40
2018-04-27T14:10:41.352Z,0.40
2018-04-27T14:13:09.614Z,0.30
2018-04-27T14:15:37.086Z,0.10
2018-04-27T14:18:04.568Z,0.40
2018-04-27T14:20:32.074Z,0.60
2018-04-27T14:23:00.348Z,0.43
2018-04-27T14:25:28.626Z,0.40
2018-04-27T14:27:56.093Z,0.43
2018-04-27T14:30:23.614Z,0.30
2018-04-27T14:32:51.689Z,0.40
2018-04-27T14:35:19.266Z,0.60
2018-04-27T14:37:46.736Z,0.40
2018-04-27T14:40:14.229Z,0.43
2018-04-27T14:42:41.725Z,0.30
2018-04-27T14:45:09.227Z,0.47
2018-04-27T14:47:37.464Z,0.37
2018-04-27T14:50:04.939Z,0.50
2018-04-27T14:52:32.462Z,0.37
2018-04-27T14:55:00.704Z,0.67
2018-04-27T14:57:28.204Z,0.37
2018-04-27T14:59:55.713Z,0.50
2018-04-27T15:02:23.199Z,0.33
2018-04-27T15:04:50.688Z,0.40
2018-04-27T15:07:18.681Z,0.27
2018-04-27T15:09:46.286Z,0.30
2018-04-27T15:12:14.539Z,0.60
2018-04-27T15:14:42.037Z,0.30
2018-04-27T15:17:10.334Z,0.40
2018-04-27T15:19:38.570Z,0.20
2018-04-27T15:22:06.068Z,0.40
2018-04-27T15:24:33.543Z,0.20
2018-04-27T15:27:01.071Z,0.13
2018-04-27T15:29:28.564Z,0.20
2018-04-27T15:31:56.075Z,0.27
2018-04-27T15:34:24.366Z,0.20
2018-04-27T15:36:51.889Z,0.33
2018-04-27T15:39:19.370Z,0.50
2018-04-27T15:41:46.858Z,0.53
2018-04-27T15:44:14.324Z,0.40
2018-04-27T15:46:41.813Z,0.50
2018-04-27T15:49:09.287Z,0.40
2018-04-27T15:51:37.538Z,0.53
2018-04-27T15:54:05.014Z,0.40
2018-04-27T15:56:32.548Z,0.30
2018-04-27T15:59:00.096Z,0.30
2018-04-27T16:01:27.574Z,0.50
2018-04-27T16:03:55.124Z,0.20
2018-04-27T16:06:22.716Z,0.40
2018-04-27T16:08:50.973Z,0.33
2018-04-27T16:11:18.479Z,0.40
2018-04-27T16:13:58.418Z,0.33
2018-04-27T16:16:25.925Z,0.33
2018-04-27T16:18:55.348Z,0.30
2018-04-27T16:21:22.903Z,0.33
2018-04-27T16:23:50.425Z,0.63
2018-04-27T16:26:17.892Z,0.30
2018-04-27T16:28:45.375Z,0.27
2018-04-27T16:31:12.878Z,0.30
2018-04-27T16:33:40.376Z,0.40
2018-04-27T16:36:07.860Z,0.30
2018-04-27T16:38:35.375Z,0.70
2018-04-27T16:41:02.848Z,0.30
2018-04-27T16:43:30.409Z,0.30
2018-04-27T16:45:57.920Z,0.43
2018-04-27T16:48:26.241Z,0.52
2018-04-27T16:50:54.077Z,0.20
2018-04-27T16:53:22.318Z,0.37
2018-04-27T16:55:49.918Z,0.60
2018-04-27T16:58:17.463Z,0.33
2018-04-27T17:00:44.960Z,0.47
2018-04-27T17:03:12.428Z,0.20
2018-04-27T17:05:39.914Z,0.40
2018-04-27T17:08:07.399Z,0.30
2018-04-27T17:10:35.664Z,0.40
2018-04-27T17:13:03.278Z,0.43
2018-04-27T17:15:30.776Z,0.33
2018-04-27T17:17:58.317Z,0.50
2018-04-27T17:20:25.881Z,0.60
2018-04-27T17:22:54.133Z,0.40
2018-04-27T17:25:21.614Z,0.33
2018-04-27T17:27:49.089Z,0.60
2018-04-27T17:30:16.579Z,0.40
2018-04-27T17:32:44.841Z,0.60
2018-04-27T17:35:13.224Z,0.40
2018-04-27T17:37:40.631Z,0.30
2018-04-27T17:40:08.860Z,0.43
2018-04-27T17:42:36.344Z,0.47
2018-04-27T17:45:04.610Z,0.50
2018-04-27T17:47:32.124Z,0.50
2018-04-27T17:49:59.615Z,0.80
2018-04-27T17:52:27.146Z,0.63
2018-04-27T17:54:54.637Z,0.50
2018-04-27T17:57:22.125Z,0.50
2018-04-27T17:59:49.591Z,0.30
2018-04-27T18:02:17.081Z,1.20
2018-04-27T18:04:45.319Z,1.53
2018-04-27T18:07:12.816Z,1.50
2018-04-27T18:09:40.277Z,1.63
2018-04-27T18:12:07.843Z,1.57
2018-04-27T18:14:35.255Z,1.30
2018-04-27T18:17:03.531Z,1.40
2018-04-27T18:19:31.015Z,1.77
2018-04-27T18:21:59.261Z,1.87
2018-04-27T18:24:26.794Z,1.50
2018-04-27T18:26:55.426Z,1.43
2018-04-27T18:29:22.955Z,1.13
2018-04-27T18:31:50.433Z,1.40
2018-04-27T18:34:18.715Z,1.57
2018-04-27T18:36:46.194Z,1.00
2018-04-27T18:39:13.746Z,1.00
2018-04-27T18:41:41.351Z,1.07
2018-04-27T18:44:08.903Z,1.30
2018-04-27T18:46:38.730Z,2.20
2018-04-27T18:49:07.023Z,1.30
2018-04-27T18:51:34.519Z,1.10
2018-04-27T18:54:02.755Z,1.20
2018-04-27T18:56:30.298Z,1.40
2018-04-27T18:58:57.771Z,1.70
2018-04-27T19:01:25.287Z,1.67
2018-04-27T19:03:54.587Z,1.47
2018-04-27T19:06:22.077Z,1.33
2018-04-27T19:08:49.657Z,1.07
2018-04-27T19:11:17.144Z,1.10
2018-04-27T19:13:45.432Z,1.20
2018-04-27T19:16:13.711Z,0.63
2018-04-27T19:18:42.909Z,0.60
2018-04-27T19:21:10.479Z,0.70
2018-04-27T19:23:38.946Z,0.80
2018-04-27T19:26:08.399Z,0.90
2018-04-27T19:28:35.855Z,1.10
2018-04-27T19:31:03.347Z,1.50
2018-04-27T19:33:30.846Z,0.80
2018-04-27T19:35:58.476Z,1.17
2018-04-27T19:38:26.695Z,0.70
2018-04-27T19:40:54.236Z,0.60
2018-04-27T19:43:22.528Z,0.97
2018-04-27T19:45:50.003Z,0.70
2018-04-27T19:48:17.517Z,1.10
2018-04-27T19:50:45.148Z,0.90
2018-04-27T19:53:12.708Z,0.77
2018-04-27T19:55:40.967Z,0.90
2018-04-27T19:58:08.458Z,1.03
2018-04-27T20:00:36.719Z,1.20
2018-04-27T20:03:04.227Z,1.10
2018-04-27T20:05:31.693Z,0.90
2018-04-27T20:07:59.242Z,0.90
2018-04-27T20:10:40.538Z,1.30
2018-04-27T20:13:22.384Z,1.37
2018-04-27T20:15:52.315Z,0.97
2018-04-27T20:18:22.632Z,0.77
2018-04-27T20:20:53.422Z,0.60
2018-04-27T20:23:21.725Z,1.00
2018-04-27T20:26:00.039Z,0.87
2018-04-27T20:28:37.443Z,0.93
2018-04-27T20:31:05.701Z,0.80
2018-04-27T20:33:33.280Z,0.60
2018-04-27T20:36:00.693Z,0.90
2018-04-27T20:38:32.947Z,1.00
2018-04-27T20:43:57.186Z,0.60
2018-04-27T20:46:26.513Z,0.80
2018-04-27T20:48:54.091Z,0.73
2018-04-27T20:51:22.310Z,1.13
2018-04-27T20:53:51.588Z,0.83
2018-04-27T20:56:19.911Z,0.87
2018-04-27T20:58:47.395Z,0.70
2018-04-27T21:01:14.868Z,0.97
2018-04-27T21:03:42.387Z,0.60
2018-04-27T21:06:10.659Z,0.73
2018-04-27T21:08:38.218Z,0.57
2018-04-27T21:11:05.691Z,0.70
2018-04-27T21:13:33.201Z,0.90
2018-04-27T21:16:01.472Z,0.60
2018-04-27T21:18:29.015Z,0.50
2018-04-27T21:20:56.586Z,0.90
2018-04-27T21:23:24.170Z,0.63
2018-04-27T21:25:52.614Z,0.70
2018-04-27T21:28:34.136Z,0.90
2018-04-27T21:31:01.665Z,0.60
2018-04-27T21:33:32.442Z,0.70
2018-04-27T21:36:00.880Z,0.70
2018-04-27T21:52:52.296Z,0.90
2018-04-27T21:55:19.792Z,0.43
2018-04-27T21:57:50.653Z,0.60
2018-04-27T22:00:26.312Z,0.60
2018-04-27T22:02:59.481Z,0.53
2018-04-27T22:08:34.036Z,0.70
2018-04-27T22:11:06.881Z,0.57
2018-04-27T22:13:35.130Z,0.50
2018-04-27T22:16:02.653Z,0.60
2018-04-27T22:18:30.157Z,0.80
2018-04-27T22:20:57.760Z,0.70
2018-04-27T22:23:27.054Z,0.73
2018-04-27T22:25:54.691Z,0.60
2018-04-27T22:28:35.686Z,0.53
2018-04-27T22:31:03.192Z,0.73
2018-04-27T22:33:31.525Z,0.67
2018-04-27T22:39:17.384Z,0.50
2018-04-27T22:41:53.932Z,0.60
2018-04-27T22:44:22.213Z,0.60
2018-04-27T22:46:59.624Z,0.60
2018-04-27T22:49:27.190Z,0.50
2018-04-27T22:51:55.546Z,0.63
2018-04-27T22:54:38.669Z,1.00
2018-04-27T22:57:17.993Z,0.67
2018-04-27T22:59:46.255Z,0.60
2018-04-27T23:02:20.202Z,0.73
2018-04-27T23:04:56.273Z,0.57
2018-04-27T23:07:25.724Z,0.63
2018-04-27T23:09:56.089Z,0.73
2018-04-27T23:12:24.516Z,0.50
2018-04-27T23:14:53.160Z,0.40
2018-04-27T23:17:20.703Z,0.50
2018-04-27T23:19:48.949Z,0.47
2018-04-27T23:22:43.070Z,0.50
2018-04-27T23:25:14.515Z,0.57
2018-04-27T23:27:42.007Z,0.50
2018-04-27T23:30:09.508Z,0.60
2018-04-27T23:32:36.984Z,0.63
2018-04-27T23:35:04.505Z,0.80
2018-04-27T23:37:31.979Z,0.50
2018-04-27T23:39:59.472Z,0.67
2018-04-27T23:42:28.590Z,0.70
2018-04-27T23:44:56.058Z,0.80
2018-04-27T23:47:23.537Z,0.50
2018-04-27T23:49:51.792Z,0.80
2018-04-27T23:52:19.282Z,0.70
2018-04-27T23:54:47.519Z,0.70
2018-04-27T23:57:15.008Z,0.67
2018-04-27T23:59:44.284Z,0.60
